Time;durP1;ratioP1;P1;durP2;ratioP2;P2;SDS_P1;SDS_P2;PMS_P1;PMS_P2;Temp;Humidity;BMP_temperature;BMP_pressure;BME280_temperature;BME280_humidity;BME280_pressure;Samples;Min_cycle;Max_cycle;Signal;HPM_P1;HPM_P2
2021/12/26 07:57:21;;;;;;;;;;;;;;;5.99;90.49;95987.31;4216424;27;10389;-68
2021/12/26 07:59:22;;;;;;;;;;;;;;;5.96;90.32;95986.88;4211609;28;6031;-68
2021/12/26 08:01:28;;;;;;;;;;;;;;;6.01;90.46;95995.03;4227196;28;7080;-68
2021/12/26 08:03:34;;;;;;;;;;;;;;;6.07;90.94;95989.03;4228876;28;5739;-68
2021/12/26 08:05:36;;;;;;;;;;;;;;;6.06;90.54;95995.28;4228985;28;5759;-68
2021/12/26 08:07:38;;;;;;;;;;;;;;;6.13;90.50;96004.88;4229048;28;5615;-68
2021/12/26 08:09:40;;;;;;;;;;;;;;;6.29;90.02;96009.06;4229943;28;5724;-68
2021/12/26 08:11:42;;;;;;;;;;;;;;;6.25;89.98;96002.56;4211327;28;5746;-67
2021/12/26 08:13:45;;;;;;;;;;;;;;;6.20;90.10;96006.72;4211288;28;5745;-68
2021/12/26 08:15:46;;;;;;;;;;;;;;;6.20;89.85;95999.66;4211221;28;5738;-68
2021/12/26 08:17:48;;;;;;;;;;;;;;;6.27;89.65;96007.63;4227790;28;5727;-68
2021/12/26 08:19:56;;;;;;;;;;;;;;;6.37;89.55;96008.16;4228366;28;5628;-68
2021/12/26 08:21:57;;;;;;;;;;;;;;;6.42;89.03;96003.13;4211125;28;5746;-68
2021/12/26 08:24:00;;;;;;;;;;;;;;;6.23;87.79;96004.56;4229517;28;5730;-68
2021/12/26 08:26:03;;;;;;;;;;;;;;;6.28;88.65;96007.44;4193975;28;5754;-68
2021/12/26 08:28:05;;;;;;;;;;;;;;;6.33;87.76;96007.69;4229528;28;5861;-68
2021/12/26 08:30:09;;;;;;;;;;;;;;;6.38;85.81;96000.09;4229465;28;5611;-68
2021/12/26 08:32:14;;;;;;;;;;;;;;;6.36;85.06;96009.97;4209112;28;5935;-68
2021/12/26 08:34:20;;;;;;;;;;;;;;;6.10;83.98;96002.59;4229396;28;5762;-68
2021/12/26 08:36:22;;;;;;;;;;;;;;;6.09;85.22;95998.34;4193632;28;5837;-68
2021/12/26 08:38:24;;;;;;;;;;;;;;;6.21;85.08;96010.97;4228625;28;5727;-68
2021/12/26 08:40:25;;;;;;;;;;;;;;;6.02;85.19;96007.16;4228276;28;6449;-68
2021/12/26 08:42:27;;;;;;;;;;;;;;;6.18;86.11;96006.91;4227279;28;5835;-68
2021/12/26 08:44:29;;;;;;;;;;;;;;;6.25;85.46;95994.69;4210901;28;5817;-68
2021/12/26 08:46:33;;;;;;;;;;;;;;;6.15;84.45;95996.81;4210653;28;7064;-68
2021/12/26 08:48:35;;;;;;;;;;;;;;;6.20;85.36;95999.66;4227786;28;5715;-68
2021/12/26 08:50:37;;;;;;;;;;;;;;;6.32;84.89;96002.63;4210826;28;5747;-68
2021/12/26 08:52:43;;;;;;;;;;;;;;;6.37;84.71;96000.28;4176840;28;5195;-68
2021/12/26 08:54:45;;;;;;;;;;;;;;;6.38;83.63;96000.09;4190828;28;5895;-67
2021/12/26 08:56:47;;;;;;;;;;;;;;;6.29;84.09;96003.81;4191137;28;5766;-68
2021/12/26 08:58:49;;;;;;;;;;;;;;;6.30;83.45;96005.44;4180554;28;5881;-68
2021/12/26 09:00:50;;;;;;;;;;;;;;;6.10;84.46;96005.22;4166461;28;5772;-68
2021/12/26 09:02:53;;;;;;;;;;;;;;;6.34;84.27;96006.72;4166292;28;5852;-67
2021/12/26 09:04:56;;;;;;;;;;;;;;;6.34;84.17;96006.72;4166378;28;5936;-68
2021/12/26 09:06:58;;;;;;;;;;;;;;;6.36;84.83;96004.72;4166203;28;5768;-68
2021/12/26 09:09:00;;;;;;;;;;;;;;;6.48;84.61;96006.84;4166044;28;5760;-68
2021/12/26 09:11:02;;;;;;;;;;;;;;;6.43;84.60;96007.38;4170381;28;5949;-68
2021/12/26 09:13:05;;;;;;;;;;;;;;;6.50;84.68;96010.09;4184148;28;5810;-69
2021/12/26 09:15:09;;;;;;;;;;;;;;;6.58;83.71;96008.16;4166201;28;5767;-68
2021/12/26 09:17:11;;;;;;;;;;;;;;;6.64;84.29;96007.41;4183814;28;5805;-68
2021/12/26 09:19:12;;;;;;;;;;;;;;;6.61;84.24;96012.22;4184003;28;6574;-69
2021/12/26 09:21:14;;;;;;;;;;;;;;;6.58;83.48;96009.97;4183988;28;5855;-69
2021/12/26 09:23:16;;;;;;;;;;;;;;;6.56;83.70;96007.53;4182388;28;5809;-69
2021/12/26 09:25:22;;;;;;;;;;;;;;;6.60;83.80;96015.84;4184094;28;5814;-67
2021/12/26 09:27:23;;;;;;;;;;;;;;;6.69;84.32;96012.13;4182013;28;5839;-68
2021/12/26 09:29:25;;;;;;;;;;;;;;;6.72;83.40;96014.34;4183830;28;6503;-68
2021/12/26 09:31:27;;;;;;;;;;;;;;;6.56;84.40;96014.59;4183563;28;5123;-68
2021/12/26 09:33:29;;;;;;;;;;;;;;;6.74;83.97;96032.56;4182492;28;5745;-68
2021/12/26 09:35:31;;;;;;;;;;;;;;;6.76;83.73;96041.88;4183803;28;5817;-68
2021/12/26 09:37:36;;;;;;;;;;;;;;;6.82;84.44;96041.13;4183661;28;5822;-68
2021/12/26 09:39:39;;;;;;;;;;;;;;;6.78;84.16;96041.69;4183537;28;5826;-68
2021/12/26 09:41:41;;;;;;;;;;;;;;;6.73;84.33;96042.25;4183600;28;5812;-69
2021/12/26 09:43:43;;;;;;;;;;;;;;;6.77;84.98;96043.50;4182096;28;5777;-68
2021/12/26 09:45:47;;;;;;;;;;;;;;;6.76;84.69;96047.13;4183454;28;5978;-68
2021/12/26 09:47:50;;;;;;;;;;;;;;;6.81;84.92;96044.75;4165622;28;5713;-68
2021/12/26 09:49:51;;;;;;;;;;;;;;;6.86;84.68;96044.19;4177360;28;5799;-69
2021/12/26 09:51:53;;;;;;;;;;;;;;;6.92;84.86;96035.56;4153681;28;5778;-68
2021/12/26 09:53:58;;;;;;;;;;;;;;;6.98;85.11;96055.81;4167314;28;5832;-68
2021/12/26 09:56:02;;;;;;;;;;;;;;;6.87;85.39;96054.50;4171821;28;5756;-68
2021/12/26 09:58:05;;;;;;;;;;;;;;;6.78;85.95;96050.38;4165600;28;5756;-68
2021/12/26 10:00:20;;;;;;;;;;;;;;;6.78;86.29;96058.25;4155165;28;5900;-68
2021/12/26 10:02:22;;;;;;;;;;;;;;;6.75;86.25;96056.00;4132839;28;6021;-68
2021/12/26 10:04:29;;;;;;;;;;;;;;;6.83;86.54;96055.88;4150076;28;5787;-68
2021/12/26 10:06:33;;;;;;;;;;;;;;;6.92;85.90;96053.94;4148790;28;5871;-69
2021/12/26 10:09:07;;;;;;;;;;;;;;;6.86;85.49;96046.81;4150605;28;5887;-69
2021/12/26 10:11:15;;;;;;;;;;;;;;;6.81;86.26;96044.75;4150391;28;5873;-68
2021/12/26 10:13:40;;;;;;;;;;;;;;;6.80;86.52;96044.94;4153844;28;6060;-69
2021/12/26 10:15:47;;;;;;;;;;;;;;;6.74;86.34;96043.88;4162067;28;7806;-69
2021/12/26 10:17:48;;;;;;;;;;;;;;;6.83;85.92;96037.50;4158557;28;5780;-69
2021/12/26 10:19:59;;;;;;;;;;;;;;;7.03;85.57;96047.38;4148888;28;5856;-69
2021/12/26 10:22:02;;;;;;;;;;;;;;;7.04;85.47;96038.50;4163103;28;5118;-69
2021/12/26 10:24:14;;;;;;;;;;;;;;;6.93;85.58;96030.13;4162241;28;5954;-69
2021/12/26 10:26:25;;;;;;;;;;;;;;;6.86;84.87;96026.59;4164520;28;5888;-68
2021/12/26 10:28:27;;;;;;;;;;;;;;;7.05;84.83;96025.16;4163824;28;5807;-70
2021/12/26 10:30:28;;;;;;;;;;;;;;;7.05;83.98;96029.59;4165716;28;5839;-68
2021/12/26 10:32:37;;;;;;;;;;;;;;;7.06;84.34;96023.34;4162771;28;6494;-68
2021/12/26 10:34:50;;;;;;;;;;;;;;;7.01;83.94;96022.06;4165182;28;5859;-68
2021/12/26 10:36:54;;;;;;;;;;;;;;;6.91;84.88;96015.53;4163299;28;5945;-69
2021/12/26 10:39:17;;;;;;;;;;;;;;;7.10;84.28;96021.94;4165713;28;5840;-69
2021/12/26 10:41:25;;;;;;;;;;;;;;;7.17;84.32;96023.63;4154831;28;5859;-69
2021/12/26 10:43:45;;;;;;;;;;;;;;;7.14;84.27;96020.59;4164355;28;5908;-69
2021/12/26 10:45:47;;;;;;;;;;;;;;;7.06;85.00;96020.72;4164145;28;5761;-69
2021/12/26 10:47:52;;;;;;;;;;;;;;;7.14;85.09;96016.13;4161453;28;5780;-69
2021/12/26 10:50:00;;;;;;;;;;;;;;;7.04;85.30;96027.97;4162659;28;5888;-69
2021/12/26 10:52:09;;;;;;;;;;;;;;;6.97;85.37;96025.28;4151898;28;5912;-70
2021/12/26 10:54:17;;;;;;;;;;;;;;;6.85;86.63;96024.97;4164363;28;5780;-69
2021/12/26 10:56:21;;;;;;;;;;;;;;;6.75;87.04;96023.66;4154961;28;5786;-69
2021/12/26 10:58:24;;;;;;;;;;;;;;;6.89;86.65;96020.97;4165060;28;5832;-70
2021/12/26 11:00:33;;;;;;;;;;;;;;;6.74;87.78;96022.84;4145415;28;5939;-70
2021/12/26 11:02:36;;;;;;;;;;;;;;;6.81;87.15;96013.22;4163410;28;5784;-70
2021/12/26 11:04:53;;;;;;;;;;;;;;;6.78;87.49;96018.84;4163592;28;5852;-70
2021/12/26 11:06:58;;;;;;;;;;;;;;;6.95;87.09;96020.22;4165070;28;5864;-69
2021/12/26 11:09:16;;;;;;;;;;;;;;;6.97;87.19;96017.41;4164572;28;5855;-69
2021/12/26 11:11:23;;;;;;;;;;;;;;;7.03;86.60;96019.28;4152244;28;5819;-68
2021/12/26 11:13:27;;;;;;;;;;;;;;;7.08;86.39;96005.56;4162263;28;5843;-70
2021/12/26 11:15:41;;;;;;;;;;;;;;;7.06;86.01;96010.19;4161919;28;5777;-72
2021/12/26 11:17:49;;;;;;;;;;;;;;;7.12;86.19;96014.69;4163115;28;5815;-72
2021/12/26 11:19:52;;;;;;;;;;;;;;;7.14;85.63;96012.69;4146706;28;5799;-70
2021/12/26 11:21:54;;;;;;;;;;;;;;;7.16;85.87;96018.56;4164389;28;5860;-73
2021/12/26 11:23:57;;;;;;;;;;;;;;;7.14;86.00;96018.78;4164476;28;5847;-68
2021/12/26 11:26:00;;;;;;;;;;;;;;;7.09;86.06;96017.69;4145764;28;5926;-70
2021/12/26 11:28:02;;;;;;;;;;;;;;;6.98;86.94;96008.50;4161295;28;6689;-71
2021/12/26 11:30:07;;;;;;;;;;;;;;;7.01;86.66;96019.44;4145532;28;6422;-68
2021/12/26 11:32:09;;;;;;;;;;;;;;;7.10;86.68;96017.50;4165259;28;6519;-70
2021/12/26 11:34:16;;;;;;;;;;;;;;;7.07;86.90;96014.44;4163043;28;5795;-67
2021/12/26 11:36:19;;;;;;;;;;;;;;;7.17;86.64;96010.50;4163781;28;5843;-68
2021/12/26 11:38:22;;;;;;;;;;;;;;;7.17;87.04;96012.31;4164542;28;5828;-70
2021/12/26 11:40:24;;;;;;;;;;;;;;;7.14;87.29;96015.34;4158302;28;5846;-69
2021/12/26 11:42:58;;;;;;;;;;;;;;;7.04;88.40;96009.59;4177017;28;5761;-69
2021/12/26 11:45:12;;;;;;;;;;;;;;;6.95;87.86;96014.16;4161612;28;5940;-70
2021/12/26 11:47:46;;;;;;;;;;;;;;;6.90;88.87;96011.25;4160479;28;5828;-67
2021/12/26 11:50:07;;;;;;;;;;;;;;;6.95;89.08;96022.03;4161298;28;5844;-68
2021/12/26 11:52:33;;;;;;;;;;;;;;;6.95;89.08;96020.22;4161786;28;5883;-68
2021/12/26 11:55:19;;;;;;;;;;;;;;;7.03;88.71;96016.66;4179430;28;5746;-68
2021/12/26 11:57:29;;;;;;;;;;;;;;;7.04;88.85;96004.31;4148434;28;5936;-68
2021/12/26 11:59:57;;;;;;;;;;;;;;;7.11;88.78;96002.53;4159798;28;7758;-68
2021/12/26 12:02:36;;;;;;;;;;;;;;;7.15;88.35;95991.47;4154812;28;5852;-67
2021/12/26 12:04:39;;;;;;;;;;;;;;;7.26;88.39;95990.13;4162108;28;5789;-68
2021/12/26 12:06:40;;;;;;;;;;;;;;;7.35;88.10;95994.22;4141736;28;5830;-68
2021/12/26 12:08:42;;;;;;;;;;;;;;;7.42;87.95;95995.09;4159351;28;5952;-68
2021/12/26 12:11:07;;;;;;;;;;;;;;;7.29;87.68;95997.63;4146373;28;5897;-69
2021/12/26 12:13:27;;;;;;;;;;;;;;;7.36;87.53;95995.88;4144531;28;5802;-68
2021/12/26 12:15:55;;;;;;;;;;;;;;;7.20;87.72;95991.72;4160113;28;5863;-68
2021/12/26 12:18:25;;;;;;;;;;;;;;;7.12;89.17;95996.28;4155982;28;5851;-69
2021/12/26 12:20:26;;;;;;;;;;;;;;;7.01;89.53;95985.28;4136939;28;5814;-68
2021/12/26 12:22:31;;;;;;;;;;;;;;;7.34;87.98;95989.97;4160886;28;5732;-68
2021/12/26 12:24:34;;;;;;;;;;;;;;;7.28;88.27;95993.38;4172983;28;5796;-67
2021/12/26 12:26:42;;;;;;;;;;;;;;;7.28;88.58;95994.19;4146281;28;5795;-67
2021/12/26 12:28:45;;;;;;;;;;;;;;;7.37;88.57;95996.69;4140864;28;6687;-67
2021/12/26 12:30:58;;;;;;;;;;;;;;;7.38;87.09;95993.88;4147011;28;6756;-67
2021/12/26 12:33:28;;;;;;;;;;;;;;;7.19;87.49;95994.53;4177509;28;5761;-66
2021/12/26 12:35:54;;;;;;;;;;;;;;;7.24;87.87;95992.13;4158779;28;5672;-66
2021/12/26 12:37:56;;;;;;;;;;;;;;;7.13;87.64;95990.03;4164783;28;5121;-66
2021/12/26 12:40:26;;;;;;;;;;;;;;;7.10;87.73;95990.41;4167406;28;7752;-67
2021/12/26 12:42:29;;;;;;;;;;;;;;;7.14;87.66;95996.94;4147171;28;5897;-67
2021/12/26 12:44:44;;;;;;;;;;;;;;;7.29;87.11;95989.75;4180716;28;5790;-67
2021/12/26 12:46:56;;;;;;;;;;;;;;;7.24;87.25;95992.13;4170396;28;5784;-67
2021/12/26 12:49:08;;;;;;;;;;;;;;;7.25;87.55;95988.53;4163581;28;5846;-69
2021/12/26 12:51:16;;;;;;;;;;;;;;;7.36;87.62;95989.78;4150560;28;5807;-68
2021/12/26 12:53:42;;;;;;;;;;;;;;;7.43;87.24;95978.31;4143855;28;5877;-69
2021/12/26 12:55:47;;;;;;;;;;;;;;;7.44;86.41;95982.56;4149112;28;5872;-68
2021/12/26 12:57:52;;;;;;;;;;;;;;;7.52;86.00;95985.03;4167285;28;5740;-68
2021/12/26 12:59:54;;;;;;;;;;;;;;;7.50;85.98;95989.69;4158107;28;5842;-68
2021/12/26 13:02:37;;;;;;;;;;;;;;;7.54;85.39;95977.75;4159078;28;5741;-68
2021/12/26 13:04:42;;;;;;;;;;;;;;;7.47;85.81;95976.09;4161624;28;6462;-69
2021/12/26 13:06:52;;;;;;;;;;;;;;;7.51;85.87;95982.59;4168784;28;5893;-68
2021/12/26 13:08:54;;;;;;;;;;;;;;;7.45;86.07;95978.91;4164643;28;5684;-68
2021/12/26 13:10:56;;;;;;;;;;;;;;;7.42;86.25;95973.25;4183494;28;5638;-68
2021/12/26 13:13:12;;;;;;;;;;;;;;;7.46;86.04;95967.38;4160315;28;5661;-70
2021/12/26 13:15:16;;;;;;;;;;;;;;;7.59;85.94;95974.56;4154333;28;5750;-68
2021/12/26 13:17:27;;;;;;;;;;;;;;;7.44;86.44;95963.34;4179962;28;5670;-68
2021/12/26 13:19:29;;;;;;;;;;;;;;;7.42;86.59;95960.91;4185626;28;5721;-68
2021/12/26 13:21:33;;;;;;;;;;;;;;;7.41;86.39;95961.91;4184655;28;5658;-68
2021/12/26 13:23:37;;;;;;;;;;;;;;;7.51;86.83;95965.00;4169266;28;5736;-68
2021/12/26 13:25:49;;;;;;;;;;;;;;;7.64;86.45;95971.34;4184965;28;5698;-68
2021/12/26 13:27:52;;;;;;;;;;;;;;;7.55;86.50;95971.50;4169435;28;5828;-68
2021/12/26 13:29:55;;;;;;;;;;;;;;;7.62;86.50;95961.03;4169454;28;7047;-68
2021/12/26 13:31:57;;;;;;;;;;;;;;;7.82;86.15;95958.50;4181238;28;5095;-69
2021/12/26 13:33:59;;;;;;;;;;;;;;;7.91;85.73;95967.00;4168784;28;5773;-68
2021/12/26 13:36:20;;;;;;;;;;;;;;;7.89;85.60;95969.84;4168802;28;5878;-68
2021/12/26 13:38:24;;;;;;;;;;;;;;;7.88;85.32;95958.50;4168516;28;5709;-68
2021/12/26 13:40:31;;;;;;;;;;;;;;;7.89;85.72;95959.31;4166836;28;5762;-68
2021/12/26 13:42:34;;;;;;;;;;;;;;;7.88;86.10;95962.94;4163557;28;5661;-68
2021/12/26 13:44:43;;;;;;;;;;;;;;;7.83;87.30;95954.84;4168539;28;5703;-69
2021/12/26 13:46:46;;;;;;;;;;;;;;;7.90;86.94;95958.31;4166091;28;5979;-69
2021/12/26 13:48:54;;;;;;;;;;;;;;;7.91;86.92;95953.84;4162943;28;6369;-69
2021/12/26 13:50:56;;;;;;;;;;;;;;;7.96;86.05;95960.16;4169573;28;5081;-68
2021/12/26 13:53:07;;;;;;;;;;;;;;;8.02;86.31;95962.00;4149580;28;7785;-71
2021/12/26 13:55:09;;;;;;;;;;;;;;;7.99;86.18;95959.75;4164577;28;5822;-69
2021/12/26 13:57:12;;;;;;;;;;;;;;;7.91;86.60;95957.28;4182910;28;5752;-70
2021/12/26 13:59:38;;;;;;;;;;;;;;;7.96;86.76;95961.97;4168496;28;5741;-69
2021/12/26 14:01:42;;;;;;;;;;;;;;;8.05;86.15;95956.34;4167516;28;5661;-70
2021/12/26 14:03:47;;;;;;;;;;;;;;;7.76;88.26;95954.81;4169938;28;5777;-70
2021/12/26 14:05:49;;;;;;;;;;;;;;;7.89;87.72;95946.16;4168854;28;5805;-70
2021/12/26 14:07:59;;;;;;;;;;;;;;;8.02;86.82;95951.47;4169983;28;5932;-69
2021/12/26 14:10:05;;;;;;;;;;;;;;;7.95;86.56;95952.47;4166819;28;8597;-69
2021/12/26 14:12:08;;;;;;;;;;;;;;;7.82;87.13;95953.22;4136269;28;5711;-69
2021/12/26 14:14:10;;;;;;;;;;;;;;;7.81;87.32;95946.31;4160145;28;5738;-69
2021/12/26 14:16:24;;;;;;;;;;;;;;;7.76;87.71;95951.38;4151709;28;6373;-68
2021/12/26 14:18:34;;;;;;;;;;;;;;;7.84;87.40;95943.31;4167394;28;5761;-68
2021/12/26 14:21:02;;;;;;;;;;;;;;;7.80;88.09;95947.31;4140240;23;5699;-68
2021/12/26 14:23:24;;;;;;;;;;;;;;;7.84;87.62;95951.22;4179207;28;5970;-68
2021/12/26 14:25:25;;;;;;;;;;;;;;;7.74;89.30;95948.13;4160877;28;5695;-69
2021/12/26 14:27:27;;;;;;;;;;;;;;;7.74;89.20;95950.75;4184725;28;5736;-70
2021/12/26 14:29:30;;;;;;;;;;;;;;;7.68;89.53;95944.44;4163946;28;6150;-69
2021/12/26 14:31:39;;;;;;;;;;;;;;;7.59;89.77;95949.06;4172081;28;5742;-69
2021/12/26 14:33:47;;;;;;;;;;;;;;;7.82;88.63;95945.34;4184249;28;5825;-68
2021/12/26 14:35:58;;;;;;;;;;;;;;;7.83;88.33;95945.13;4186067;28;5716;-68
2021/12/26 14:38:13;;;;;;;;;;;;;;;7.89;87.71;95948.78;4192279;28;5695;-68
2021/12/26 14:40:15;;;;;;;;;;;;;;;7.81;88.03;95947.16;4184089;28;5694;-69
2021/12/26 14:42:19;;;;;;;;;;;;;;;7.68;89.19;95941.81;4175195;28;5749;-70
2021/12/26 14:44:27;;;;;;;;;;;;;;;7.81;88.26;95941.06;4180727;28;5788;-70
2021/12/26 14:46:28;;;;;;;;;;;;;;;7.79;88.26;95943.06;4168359;28;5748;-69
2021/12/26 14:48:34;;;;;;;;;;;;;;;7.89;87.76;95946.97;4182642;28;5667;-69
2021/12/26 14:50:36;;;;;;;;;;;;;;;7.82;88.58;95938.25;4185652;28;5704;-69
2021/12/26 14:52:45;;;;;;;;;;;;;;;7.81;88.64;95941.91;4179215;28;5638;-68
2021/12/26 14:54:53;;;;;;;;;;;;;;;7.96;87.82;95949.63;4184137;28;5640;-69
2021/12/26 14:56:55;;;;;;;;;;;;;;;8.07;87.59;95948.25;4181700;28;5725;-68
2021/12/26 14:58:56;;;;;;;;;;;;;;;8.19;87.21;95959.84;4186031;28;5700;-69
2021/12/26 15:00:59;;;;;;;;;;;;;;;8.21;87.62;95951.72;4182326;28;5759;-67
2021/12/26 15:03:10;;;;;;;;;;;;;;;8.20;87.69;95958.00;4183849;28;5623;-68
2021/12/26 15:05:36;;;;;;;;;;;;;;;7.87;89.45;95953.44;4180145;28;5708;-68
2021/12/26 15:07:45;;;;;;;;;;;;;;;8.07;88.21;95956.97;4176940;28;5733;-67
2021/12/26 15:10:00;;;;;;;;;;;;;;;7.84;89.26;95956.47;4167473;28;5737;-68
2021/12/26 15:12:20;;;;;;;;;;;;;;;7.70;88.24;95947.72;4165017;28;5682;-67
2021/12/26 15:14:26;;;;;;;;;;;;;;;7.70;88.72;95954.75;4183366;28;5779;-66
2021/12/26 15:16:30;;;;;;;;;;;;;;;7.69;88.69;95948.69;4182698;28;5638;-67
2021/12/26 15:18:34;;;;;;;;;;;;;;;7.73;88.37;95949.13;4182188;28;5925;-68
2021/12/26 15:20:39;;;;;;;;;;;;;;;7.55;88.54;95953.09;4183797;28;6388;-71
2021/12/26 15:22:45;;;;;;;;;;;;;;;7.48;88.80;95946.19;4175814;28;5819;-70
2021/12/26 15:24:52;;;;;;;;;;;;;;;7.54;89.33;95940.94;4181110;28;5536;-70
2021/12/26 15:27:06;;;;;;;;;;;;;;;7.57;89.21;95937.91;4188583;28;5576;-70
2021/12/26 15:29:07;;;;;;;;;;;;;;;7.55;88.77;95944.38;4175861;28;6209;-73
2021/12/26 15:31:18;;;;;;;;;;;;;;;7.47;88.61;95941.91;4178030;28;5892;-72
2021/12/26 15:33:30;;;;;;;;;;;;;;;7.59;87.65;95946.44;4166059;28;5613;-71
2021/12/26 15:35:32;;;;;;;;;;;;;;;7.73;87.26;95957.03;4175301;28;5637;-71
2021/12/26 15:37:33;;;;;;;;;;;;;;;7.68;87.09;95964.69;4180398;28;5699;-71
2021/12/26 15:39:35;;;;;;;;;;;;;;;7.55;87.66;95968.88;4183917;28;5550;-71
2021/12/26 15:41:43;;;;;;;;;;;;;;;7.48;87.28;95977.75;4180110;28;5558;-71
2021/12/26 15:43:44;;;;;;;;;;;;;;;7.64;86.79;95971.34;4180658;28;5682;-71
2021/12/26 15:45:46;;;;;;;;;;;;;;;7.59;87.15;95979.84;4199923;28;5885;-71
2021/12/26 15:47:48;;;;;;;;;;;;;;;7.65;86.80;95978.22;4187916;28;5657;-71
2021/12/26 15:49:50;;;;;;;;;;;;;;;7.60;87.15;95976.19;4190510;28;5661;-72
2021/12/26 15:51:52;;;;;;;;;;;;;;;7.73;86.49;95975.44;4182463;28;5802;-72
2021/12/26 15:53:55;;;;;;;;;;;;;;;7.62;86.98;95973.38;4189468;28;5723;-70
2021/12/26 15:55:59;;;;;;;;;;;;;;;7.68;86.79;95978.63;4177208;28;5731;-71
2021/12/26 15:58:01;;;;;;;;;;;;;;;7.61;87.05;95977.00;4178268;28;5771;-70
2021/12/26 16:00:05;;;;;;;;;;;;;;;7.69;86.31;95979.44;4185497;28;5539;-71
2021/12/26 16:02:07;;;;;;;;;;;;;;;7.62;86.65;95976.00;4199523;28;5744;-71
2021/12/26 16:04:12;;;;;;;;;;;;;;;7.54;87.81;95976.94;4181056;28;5573;-71
2021/12/26 16:06:15;;;;;;;;;;;;;;;7.69;87.30;95971.56;4168214;28;5838;-71
2021/12/26 16:08:16;;;;;;;;;;;;;;;7.83;86.81;95975.91;4176996;28;5938;-71
2021/12/26 16:10:24;;;;;;;;;;;;;;;7.92;86.22;95990.50;4178769;28;5602;-72
2021/12/26 16:12:26;;;;;;;;;;;;;;;7.90;86.58;95981.97;4187121;28;5691;-71
2021/12/26 16:14:28;;;;;;;;;;;;;;;7.97;86.65;95988.09;4193987;28;5825;-71
2021/12/26 16:16:29;;;;;;;;;;;;;;;7.98;86.74;95994.19;4183891;28;5566;-72
2021/12/26 16:18:33;;;;;;;;;;;;;;;7.98;87.15;95988.91;4180863;28;5778;-67
2021/12/26 16:20:35;;;;;;;;;;;;;;;7.98;86.70;95983.66;4178893;28;5579;-67
2021/12/26 16:22:39;;;;;;;;;;;;;;;7.78;88.06;95984.34;4174167;28;5854;-69
2021/12/26 16:24:40;;;;;;;;;;;;;;;7.67;88.01;95984.91;4182266;28;6937;-69
2021/12/26 16:26:42;;;;;;;;;;;;;;;7.63;88.22;95985.50;4183082;28;5732;-71
2021/12/26 16:28:46;;;;;;;;;;;;;;;7.62;88.34;95986.50;4180918;28;5686;-70
2021/12/26 16:30:48;;;;;;;;;;;;;;;7.68;88.07;95993.63;4181503;28;5943;-73
2021/12/26 16:32:50;;;;;;;;;;;;;;;7.64;88.85;95993.19;4182919;28;6360;-77
2021/12/26 16:34:52;;;;;;;;;;;;;;;7.49;89.13;95993.31;4185540;28;5748;-70
2021/12/26 16:36:54;;;;;;;;;;;;;;;7.46;89.08;95998.13;4183504;28;5670;-71
2021/12/26 16:38:56;;;;;;;;;;;;;;;7.50;88.97;95996.75;4168655;28;5979;-69
2021/12/26 16:41:02;;;;;;;;;;;;;;;7.38;89.19;96004.38;4182471;28;5917;-71
2021/12/26 16:43:04;;;;;;;;;;;;;;;7.61;88.21;96022.53;4186161;28;5843;-74
2021/12/26 16:45:07;;;;;;;;;;;;;;;7.70;87.95;96018.75;4167870;28;5744;-69
2021/12/26 16:47:08;;;;;;;;;;;;;;;7.39;88.94;96016.53;4185747;28;5635;-70
2021/12/26 16:49:10;;;;;;;;;;;;;;;7.39;89.57;96011.25;4188970;28;6000;-73
2021/12/26 16:51:12;;;;;;;;;;;;;;;7.40;89.84;96007.63;4181517;28;5832;-71
2021/12/26 16:53:15;;;;;;;;;;;;;;;7.32;89.94;96010.38;4184930;28;5728;-73
2021/12/26 16:55:16;;;;;;;;;;;;;;;7.41;89.92;96016.31;4183234;28;5720;-71
2021/12/26 16:57:18;;;;;;;;;;;;;;;7.45;89.61;96013.09;4184482;28;5741;-71
2021/12/26 16:59:22;;;;;;;;;;;;;;;7.39;90.17;96019.16;4184138;28;5905;-71
2021/12/26 17:01:24;;;;;;;;;;;;;;;7.34;90.22;96010.19;4180906;28;5760;-70
2021/12/26 17:03:26;;;;;;;;;;;;;;;7.42;89.73;96007.44;4185436;28;5959;-71
2021/12/26 17:05:29;;;;;;;;;;;;;;;7.31;89.74;96008.78;4186137;28;7740;-71
2021/12/26 17:07:32;;;;;;;;;;;;;;;7.23;90.31;96004.47;4180024;28;5674;-71
2021/12/26 17:09:34;;;;;;;;;;;;;;;7.17;91.08;95999.97;4178257;28;5748;-71
2021/12/26 17:11:36;;;;;;;;;;;;;;;7.47;89.22;96007.66;4174766;28;5728;-71
2021/12/26 17:13:39;;;;;;;;;;;;;;;7.40;89.79;96007.63;4185003;28;5650;-71
2021/12/26 17:15:41;;;;;;;;;;;;;;;7.39;89.56;96006.00;4182351;28;6827;-71
2021/12/26 17:17:43;;;;;;;;;;;;;;;7.35;90.02;96009.19;4192545;28;5926;-71
2021/12/26 17:19:47;;;;;;;;;;;;;;;7.25;90.50;96001.66;4191798;28;5680;-70
2021/12/26 17:21:49;;;;;;;;;;;;;;;7.22;90.76;96002.03;4188286;28;5667;-71
2021/12/26 17:23:50;;;;;;;;;;;;;;;7.37;90.09;96005.38;4188829;28;5720;-71
2021/12/26 17:25:52;;;;;;;;;;;;;;;7.39;89.83;96000.75;4180491;28;5717;-71
2021/12/26 17:27:54;;;;;;;;;;;;;;;7.25;90.60;96001.66;4179722;28;5720;-71
2021/12/26 17:30:01;;;;;;;;;;;;;;;7.29;90.35;96005.53;4167092;28;5741;-71
2021/12/26 17:32:04;;;;;;;;;;;;;;;7.23;91.21;95995.75;4179989;28;5772;-71
2021/12/26 17:34:06;;;;;;;;;;;;;;;7.20;90.91;95996.97;4149430;28;5679;-69
2021/12/26 17:36:10;;;;;;;;;;;;;;;7.26;90.62;95993.59;4178810;28;5729;-69
2021/12/26 17:38:12;;;;;;;;;;;;;;;7.36;90.41;95992.41;4189358;28;5725;-70
2021/12/26 17:40:15;;;;;;;;;;;;;;;7.27;90.90;95997.03;4183945;28;6398;-70
2021/12/26 17:42:17;;;;;;;;;;;;;;;7.26;91.02;95992.78;4184528;28;5714;-70
2021/12/26 17:44:18;;;;;;;;;;;;;;;7.25;90.96;95994.59;4183717;28;5885;-70
2021/12/26 17:46:20;;;;;;;;;;;;;;;7.30;90.02;95996.63;4186383;28;5715;-70
2021/12/26 17:48:24;;;;;;;;;;;;;;;7.48;89.25;95999.59;4189634;28;5676;-69
2021/12/26 17:50:26;;;;;;;;;;;;;;;7.62;88.87;96007.56;4192152;28;5988;-69
2021/12/26 17:52:27;;;;;;;;;;;;;;;7.67;88.56;96002.50;4182098;28;5690;-68
2021/12/26 17:54:29;;;;;;;;;;;;;;;7.54;88.42;96009.31;4184313;28;5740;-69
2021/12/26 17:56:30;;;;;;;;;;;;;;;7.34;89.14;96012.81;4183938;28;5886;-68
2021/12/26 17:58:32;;;;;;;;;;;;;;;7.09;90.11;96007.19;4183549;28;5720;-69
2021/12/26 18:00:34;;;;;;;;;;;;;;;6.94;91.09;96013.34;4183935;28;5801;-69
2021/12/26 18:02:36;;;;;;;;;;;;;;;6.92;91.44;96012.72;4165014;28;5685;-68
2021/12/26 18:04:39;;;;;;;;;;;;;;;6.91;91.73;96013.72;4191473;28;5897;-68
2021/12/26 18:06:42;;;;;;;;;;;;;;;6.87;91.88;96017.72;4180907;28;5658;-68
2021/12/26 18:08:44;;;;;;;;;;;;;;;6.98;91.66;96019.03;4181258;28;5730;-68
2021/12/26 18:10:48;;;;;;;;;;;;;;;7.17;90.85;96023.63;4168415;28;5683;-68
2021/12/26 18:12:50;;;;;;;;;;;;;;;7.13;91.16;96032.06;4188912;28;5751;-68
2021/12/26 18:14:53;;;;;;;;;;;;;;;7.22;90.38;96033.56;4187161;28;5686;-68
2021/12/26 18:16:55;;;;;;;;;;;;;;;7.26;90.07;96032.22;4196539;28;5712;-68
2021/12/26 18:19:01;;;;;;;;;;;;;;;7.00;92.40;96017.00;4180507;28;5635;-68
2021/12/26 18:21:03;;;;;;;;;;;;;;;6.93;92.04;96019.59;4189325;28;5861;-68
2021/12/26 18:23:07;;;;;;;;;;;;;;;6.89;92.64;96020.16;4199429;28;5766;-69
2021/12/26 18:25:10;;;;;;;;;;;;;;;7.05;91.48;96017.28;4181133;28;5941;-68
2021/12/26 18:27:12;;;;;;;;;;;;;;;7.13;91.15;96018.94;4208624;28;5544;-68
2021/12/26 18:29:14;;;;;;;;;;;;;;;7.10;91.49;96022.75;4185198;28;5713;-68
2021/12/26 18:31:16;;;;;;;;;;;;;;;6.97;91.82;96017.41;4172928;28;5765;-68
2021/12/26 18:33:18;;;;;;;;;;;;;;;7.00;91.71;96011.75;4189786;28;5723;-68
2021/12/26 18:35:22;;;;;;;;;;;;;;;7.07;91.31;96017.09;4175875;28;5665;-68
2021/12/26 18:37:24;;;;;;;;;;;;;;;7.08;91.44;96014.25;4198950;28;5635;-69
2021/12/26 18:39:25;;;;;;;;;;;;;;;7.29;90.92;96016.03;4178344;28;5126;-69
2021/12/26 18:41:28;;;;;;;;;;;;;;;7.38;90.39;96017.53;4198467;28;5548;-69
2021/12/26 18:43:30;;;;;;;;;;;;;;;7.25;90.83;96025.31;4205659;28;5582;-69
2021/12/26 18:45:41;;;;;;;;;;;;;;;7.38;90.06;96025.41;4189313;28;5284;-68
2021/12/26 18:47:43;;;;;;;;;;;;;;;7.29;89.95;96024.75;4176327;28;7652;-69
2021/12/26 18:49:44;;;;;;;;;;;;;;;7.18;90.11;96027.06;4191892;28;5600;-68
2021/12/26 18:51:46;;;;;;;;;;;;;;;6.95;90.60;96017.59;4180562;28;5756;-68
2021/12/26 18:53:48;;;;;;;;;;;;;;;7.09;90.25;96022.94;4201551;28;5898;-68
2021/12/26 18:55:50;;;;;;;;;;;;;;;7.07;89.93;96020.53;4181319;28;5671;-69
2021/12/26 18:57:53;;;;;;;;;;;;;;;7.01;90.45;96023.91;4179369;28;5785;-69
2021/12/26 18:59:55;;;;;;;;;;;;;;;7.04;90.68;96023.53;4181270;28;5725;-69
2021/12/26 19:01:57;;;;;;;;;;;;;;;6.97;90.42;96025.28;4179158;28;5786;-69
2021/12/26 19:04:00;;;;;;;;;;;;;;;6.83;90.87;96021.72;4188116;28;5740;-68
2021/12/26 19:06:04;;;;;;;;;;;;;;;6.94;89.85;96021.22;4185053;28;5762;-71
2021/12/26 19:08:08;;;;;;;;;;;;;;;6.90;89.89;96021.78;4186250;28;5721;-70
2021/12/26 19:10:10;;;;;;;;;;;;;;;6.94;89.73;96017.78;4162011;28;6433;-72